Time;durP1;ratioP1;P1;durP2;ratioP2;P2;SDS_P1;SDS_P2;PMS_P1;PMS_P2;Temp;Humidity;BMP_temperature;BMP_pressure;BME280_temperature;BME280_humidity;BME280_pressure;Samples;Min_cycle;Max_cycle;Signal;HPM_P1;HPM_P2
2024/01/21 00:00:12;;;;;;;0.30;0.30;;;0.60;99.90;;;;;;5088999;28;20438;-79
2024/01/21 00:02:38;;;;;;;0.30;0.30;;;0.70;99.90;;;;;;5089013;28;20193;-79
2024/01/21 00:05:04;;;;;;;0.30;0.30;;;0.70;99.90;;;;;;5087676;28;20225;-85
2024/01/21 00:07:30;;;;;;;0.30;0.30;;;0.70;99.90;;;;;;5090210;28;20547;-84
2024/01/21 00:09:55;;;;;;;0.30;0.30;;;0.70;99.90;;;;;;5089842;28;20232;-84
2024/01/21 00:12:21;;;;;;;0.30;0.30;;;0.60;99.90;;;;;;5090441;28;20631;-85
2024/01/21 00:14:47;;;;;;;0.30;0.30;;;0.60;99.90;;;;;;5088831;28;20208;-79
2024/01/21 00:17:13;;;;;;;0.30;0.30;;;0.50;99.90;;;;;;5088585;28;20181;-79
2024/01/21 00:19:39;;;;;;;0.30;0.30;;;0.50;99.90;;;;;;5089875;28;20480;-79
2024/01/21 00:22:06;;;;;;;0.30;0.30;;;0.40;99.90;;;;;;5090035;28;20297;-84
2024/01/21 00:24:31;;;;;;;0.30;0.30;;;0.40;99.90;;;;;;5087531;28;20205;-79
2024/01/21 00:26:57;;;;;;;0.30;0.30;;;0.40;99.90;;;;;;5090515;28;20180;-84
2024/01/21 00:29:23;;;;;;;0.30;0.30;;;0.40;99.90;;;;;;5089570;28;20196;-79
2024/01/21 00:31:48;;;;;;;0.30;0.30;;;0.30;99.90;;;;;;5090399;28;20172;-83
2024/01/21 00:34:14;;;;;;;0.30;0.30;;;0.30;99.90;;;;;;5088258;28;20226;-79
2024/01/21 00:36:40;;;;;;;0.30;0.30;;;0.30;99.90;;;;;;5088868;28;20180;-80
2024/01/21 00:39:05;;;;;;;0.30;0.30;;;0.40;99.90;;;;;;5089399;28;20252;-79
2024/01/21 00:41:31;;;;;;;0.30;0.30;;;0.40;99.90;;;;;;5089786;28;20202;-83
2024/01/21 00:43:57;;;;;;;0.30;0.30;;;0.40;99.90;;;;;;5089149;28;20629;-84
2024/01/21 00:46:22;;;;;;;0.30;0.30;;;0.40;99.90;;;;;;5089900;28;20176;-81
2024/01/21 00:48:48;;;;;;;0.30;0.30;;;0.30;99.90;;;;;;5089431;28;20249;-85
2024/01/21 00:51:14;;;;;;;0.30;0.30;;;0.30;99.90;;;;;;5088323;28;20181;-78
2024/01/21 00:53:40;;;;;;;0.30;0.30;;;0.30;99.90;;;;;;5087724;28;20196;-85
2024/01/21 00:56:06;;;;;;;0.30;0.30;;;0.30;99.90;;;;;;5088276;28;20711;-84
2024/01/21 00:58:32;;;;;;;0.30;0.30;;;0.30;99.90;;;;;;5088106;28;20204;-85
2024/01/21 01:00:57;;;;;;;0.30;0.30;;;0.30;99.90;;;;;;5089674;28;20173;-84
2024/01/21 01:03:24;;;;;;;0.30;0.30;;;0.30;99.90;;;;;;5088033;28;20442;-78
2024/01/21 01:05:50;;;;;;;0.30;0.30;;;0.30;99.90;;;;;;5089515;28;20187;-79
2024/01/21 01:08:17;;;;;;;0.30;0.30;;;0.30;99.90;;;;;;5087124;28;20338;-84
2024/01/21 01:10:43;;;;;;;0.30;0.30;;;0.20;99.90;;;;;;5088219;28;20221;-78
2024/01/21 01:13:09;;;;;;;0.30;0.30;;;0.20;99.90;;;;;;5087868;28;20196;-84
2024/01/21 01:15:35;;;;;;;0.30;0.30;;;0.20;99.90;;;;;;5091892;28;20824;-84
2024/01/21 01:18:02;;;;;;;0.30;0.30;;;0.20;99.90;;;;;;5093269;28;20408;-78
2024/01/21 01:20:27;;;;;;;0.30;0.30;;;0.20;99.90;;;;;;5091935;28;20206;-78
2024/01/21 01:22:53;;;;;;;0.30;0.20;;;0.20;99.90;;;;;;5092193;28;20356;-84
2024/01/21 01:25:19;;;;;;;0.30;0.30;;;0.20;99.90;;;;;;5092247;28;20762;-84
2024/01/21 01:27:45;;;;;;;0.30;0.30;;;0.20;99.90;;;;;;5093250;28;20489;-85
2024/01/21 01:30:11;;;;;;;0.30;0.30;;;0.10;99.90;;;;;;5092046;28;20219;-84
2024/01/21 01:32:37;;;;;;;0.30;0.30;;;0.10;99.90;;;;;;5093572;28;20256;-79
2024/01/21 01:35:04;;;;;;;0.30;0.30;;;0.10;99.90;;;;;;5092729;28;20295;-85
2024/01/21 01:37:31;;;;;;;0.30;0.30;;;0.10;99.90;;;;;;5092167;28;20704;-85
2024/01/21 01:39:56;;;;;;;0.30;0.30;;;0.10;99.90;;;;;;5093192;28;20180;-78
2024/01/21 01:42:22;;;;;;;0.30;0.30;;;0.10;99.90;;;;;;5091699;28;20652;-78
2024/01/21 01:44:48;;;;;;;0.30;0.30;;;0.00;99.90;;;;;;5091129;28;20403;-79
2024/01/21 01:47:14;;;;;;;0.30;0.30;;;0.00;99.90;;;;;;5091715;28;20391;-79
2024/01/21 01:49:42;;;;;;;0.30;0.30;;;0.00;99.90;;;;;;5091490;28;20204;-84
2024/01/21 01:52:12;;;;;;;0.30;0.30;;;0.00;99.90;;;;;;5091616;28;20659;-84
2024/01/21 01:54:40;;;;;;;0.30;0.30;;;0.00;99.90;;;;;;5092926;28;20216;-83
2024/01/21 01:57:08;;;;;;;0.30;0.30;;;0.10;99.90;;;;;;5092712;28;20561;-79
2024/01/21 01:59:34;;;;;;;0.30;0.30;;;0.10;99.90;;;;;;5091404;28;20213;-79
2024/01/21 02:02:00;;;;;;;0.30;0.30;;;0.10;99.90;;;;;;5092890;28;20181;-79
2024/01/21 02:04:27;;;;;;;0.30;0.30;;;0.10;99.90;;;;;;5091102;28;20597;-79
2024/01/21 02:06:52;;;;;;;0.30;0.30;;;0.10;99.90;;;;;;5092486;28;20177;-79
2024/01/21 02:09:19;;;;;;;0.30;0.30;;;0.10;99.90;;;;;;5092242;28;21004;-79
2024/01/21 02:11:44;;;;;;;0.30;0.30;;;0.00;99.90;;;;;;5092220;28;20530;-78
2024/01/21 02:14:11;;;;;;;0.30;0.30;;;0.00;99.90;;;;;;5090734;28;20712;-85
2024/01/21 02:16:37;;;;;;;0.30;0.30;;;0.00;99.90;;;;;;5092971;28;20317;-85
2024/01/21 02:19:10;;;;;;;0.30;0.30;;;0.00;99.90;;;;;;5091963;28;20185;-79
2024/01/21 02:21:36;;;;;;;0.30;0.30;;;0.00;99.90;;;;;;5091306;28;20188;-79
2024/01/21 02:24:02;;;;;;;0.30;0.30;;;0.00;99.90;;;;;;5092071;28;20203;-85
2024/01/21 02:26:28;;;;;;;0.30;0.30;;;0.00;99.90;;;;;;5090915;28;20665;-84
2024/01/21 02:28:54;;;;;;;0.30;0.30;;;-0.10;99.90;;;;;;5090310;28;20292;-84
2024/01/21 02:31:19;;;;;;;0.30;0.30;;;-0.10;99.90;;;;;;5092512;28;20634;-80
2024/01/21 02:33:45;;;;;;;0.30;0.30;;;-0.10;99.90;;;;;;5090563;28;20348;-85
2024/01/21 02:36:11;;;;;;;0.30;0.30;;;-0.10;99.90;;;;;;5090800;28;20219;-79
2024/01/21 02:38:36;;;;;;;0.30;0.30;;;-0.10;99.90;;;;;;5091747;28;20192;-79
2024/01/21 02:41:02;;;;;;;0.30;0.30;;;-0.10;99.90;;;;;;5092059;28;20184;-80
2024/01/21 02:43:28;;;;;;;0.30;0.30;;;-0.10;99.90;;;;;;5091604;28;20232;-80
2024/01/21 02:45:53;;;;;;;0.40;0.30;;;-0.20;99.90;;;;;;5091403;28;20908;-85
2024/01/21 02:48:19;;;;;;;0.30;0.30;;;-0.20;99.90;;;;;;5090472;28;20564;-85
2024/01/21 02:50:45;;;;;;;0.30;0.30;;;-0.20;99.90;;;;;;5090581;28;20207;-79
2024/01/21 02:53:11;;;;;;;0.30;0.30;;;-0.20;99.90;;;;;;5090387;28;20223;-85
2024/01/21 02:55:36;;;;;;;0.30;0.30;;;-0.20;99.90;;;;;;5092222;28;20495;-79
2024/01/21 02:58:02;;;;;;;0.30;0.30;;;-0.20;99.90;;;;;;5091371;28;20196;-84
2024/01/21 03:00:28;;;;;;;0.30;0.30;;;-0.20;99.90;;;;;;5090427;28;20356;-79
2024/01/21 03:02:53;;;;;;;0.30;0.30;;;-0.20;99.90;;;;;;5091869;28;20216;-78
2024/01/21 03:05:19;;;;;;;0.30;0.30;;;-0.30;99.90;;;;;;5091849;28;20184;-84
2024/01/21 03:07:45;;;;;;;0.30;0.30;;;-0.40;99.90;;;;;;5091032;28;20428;-85
2024/01/21 03:10:10;;;;;;;0.30;0.30;;;-0.40;99.90;;;;;;5091126;28;20240;-79
2024/01/21 03:12:36;;;;;;;0.30;0.30;;;-0.40;99.90;;;;;;5090812;28;20176;-79
2024/01/21 03:15:04;;;;;;;0.30;0.30;;;-0.40;99.90;;;;;;5090755;28;20208;-78
2024/01/21 03:17:30;;;;;;;0.30;0.30;;;-0.40;99.90;;;;;;5091511;28;20214;-78
2024/01/21 03:19:55;;;;;;;0.30;0.30;;;-0.40;99.90;;;;;;5090989;28;20176;-85
2024/01/21 03:22:21;;;;;;;0.30;0.30;;;-0.50;99.90;;;;;;5091036;28;20642;-79
2024/01/21 03:24:47;;;;;;;0.30;0.30;;;-0.40;99.90;;;;;;5089883;28;20180;-85
2024/01/21 03:27:13;;;;;;;0.30;0.30;;;-0.40;99.90;;;;;;5091096;28;20204;-80
2024/01/21 03:29:39;;;;;;;0.30;0.30;;;-0.50;99.90;;;;;;5089432;28;20455;-79
2024/01/21 03:32:05;;;;;;;0.30;0.30;;;-0.50;99.90;;;;;;5089637;28;20267;-78
2024/01/21 03:34:31;;;;;;;0.30;0.30;;;-0.50;99.90;;;;;;5090563;28;20442;-84
2024/01/21 03:36:57;;;;;;;0.30;0.30;;;-0.60;99.90;;;;;;5089715;28;20405;-79
2024/01/21 03:39:22;;;;;;;0.30;0.30;;;-0.60;99.90;;;;;;5088911;28;20592;-79
2024/01/21 03:41:48;;;;;;;0.30;0.30;;;-0.60;99.90;;;;;;5091070;28;20203;-84
2024/01/21 03:44:14;;;;;;;0.30;0.30;;;-0.60;99.90;;;;;;5090174;28;20441;-85
2024/01/21 03:46:40;;;;;;;0.30;0.30;;;-0.70;99.90;;;;;;5089343;28;20181;-79
2024/01/21 03:49:05;;;;;;;0.30;0.30;;;-0.70;99.90;;;;;;5088571;28;20196;-84
2024/01/21 03:51:31;;;;;;;0.30;0.30;;;-0.70;99.90;;;;;;5089501;28;20649;-78
2024/01/21 03:53:57;;;;;;;0.30;0.30;;;-0.70;99.90;;;;;;5090229;28;20195;-84
2024/01/21 03:56:23;;;;;;;0.30;0.30;;;-0.70;99.90;;;;;;5089427;28;20220;-82
2024/01/21 03:58:48;;;;;;;0.30;0.30;;;-0.80;99.90;;;;;;5090109;28;20656;-79
2024/01/21 04:01:14;;;;;;;0.30;0.30;;;-0.80;99.90;;;;;;5089553;28;20184;-79
2024/01/21 04:03:40;;;;;;;0.30;0.30;;;-0.80;99.90;;;;;;5090068;28;20196;-78
2024/01/21 04:06:05;;;;;;;0.30;0.30;;;-0.80;99.90;;;;;;5089199;28;20646;-83
2024/01/21 04:08:31;;;;;;;0.30;0.30;;;-0.80;99.90;;;;;;5090209;28;20917;-78
2024/01/21 04:10:57;;;;;;;0.30;0.30;;;-0.80;99.90;;;;;;5088876;28;20677;-78
2024/01/21 04:13:23;;;;;;;0.30;0.30;;;-0.80;99.90;;;;;;5088851;28;20802;-79
2024/01/21 04:15:49;;;;;;;0.30;0.30;;;-0.80;99.90;;;;;;5089057;28;20236;-84
2024/01/21 04:18:15;;;;;;;0.30;0.30;;;-0.80;99.90;;;;;;5089126;28;20204;-79
2024/01/21 04:20:41;;;;;;;0.30;0.30;;;-0.80;99.90;;;;;;5089978;28;20183;-83
2024/01/21 04:23:06;;;;;;;0.30;0.30;;;-0.80;99.90;;;;;;5088525;28;20251;-84
2024/01/21 04:25:32;;;;;;;0.30;0.30;;;-0.90;99.90;;;;;;5088974;28;20180;-85
2024/01/21 04:27:58;;;;;;;0.30;0.30;;;-0.90;99.90;;;;;;5089798;28;20247;-85
2024/01/21 04:30:23;;;;;;;0.30;0.30;;;-0.90;99.90;;;;;;5088555;28;20180;-83
2024/01/21 04:32:49;;;;;;;0.30;0.30;;;-0.90;99.90;;;;;;5088583;28;20200;-79
2024/01/21 04:35:15;;;;;;;0.30;0.30;;;-0.90;99.90;;;;;;5089417;28;20288;-78
2024/01/21 04:37:41;;;;;;;0.30;0.30;;;-0.90;99.90;;;;;;5088764;28;20211;-80
2024/01/21 04:40:07;;;;;;;0.30;0.30;;;-0.90;99.90;;;;;;5088400;28;20425;-78
2024/01/21 04:42:33;;;;;;;0.30;0.30;;;-0.90;99.90;;;;;;5089463;28;20168;-84
2024/01/21 04:44:58;;;;;;;0.30;0.30;;;-0.90;99.90;;;;;;5089734;28;20260;-83
2024/01/21 04:47:24;;;;;;;0.30;0.30;;;-0.90;99.90;;;;;;5089291;28;20172;-77
2024/01/21 04:49:49;;;;;;;0.30;0.30;;;-0.90;99.90;;;;;;5089812;28;20489;-78
2024/01/21 04:52:15;;;;;;;0.30;0.30;;;-1.00;99.90;;;;;;5088574;28;20216;-82
2024/01/21 04:54:41;;;;;;;0.30;0.30;;;-0.90;99.90;;;;;;5088256;28;20269;-84
2024/01/21 04:57:07;;;;;;;0.30;0.30;;;-1.00;99.90;;;;;;5089748;28;20191;-78
2024/01/21 04:59:33;;;;;;;0.30;0.30;;;-1.00;99.90;;;;;;5088329;28;20986;-82
2024/01/21 05:01:58;;;;;;;0.30;0.30;;;-1.10;99.90;;;;;;5088621;28;20176;-84
2024/01/21 05:04:24;;;;;;;0.30;0.30;;;-1.10;99.90;;;;;;5087967;28;20193;-83
2024/01/21 05:06:50;;;;;;;0.30;0.30;;;-1.10;99.90;;;;;;5088766;28;20234;-78
2024/01/21 05:09:15;;;;;;;0.30;0.30;;;-1.10;99.90;;;;;;5088853;28;20235;-78
2024/01/21 05:11:42;;;;;;;0.30;0.30;;;-1.10;99.90;;;;;;5088489;28;20226;-77
2024/01/21 05:14:08;;;;;;;0.30;0.30;;;-1.10;99.90;;;;;;5087210;28;20200;-82
2024/01/21 05:16:37;;;;;;;0.30;0.30;;;-1.10;99.90;;;;;;5087981;28;20451;-78
2024/01/21 05:19:03;;;;;;;0.30;0.30;;;-1.10;99.90;;;;;;5087782;28;20203;-78
2024/01/21 05:21:29;;;;;;;0.30;0.30;;;-1.10;99.90;;;;;;5089766;28;20181;-78
2024/01/21 05:23:55;;;;;;;0.30;0.30;;;-1.20;99.90;;;;;;5087562;28;20441;-84
2024/01/21 05:26:20;;;;;;;0.30;0.30;;;-1.20;99.90;;;;;;5089904;28;20181;-83
2024/01/21 05:28:46;;;;;;;0.30;0.30;;;-1.30;99.90;;;;;;5088898;28;20657;-77
2024/01/21 05:31:12;;;;;;;0.30;0.30;;;-1.40;99.90;;;;;;5088011;28;20188;-82
2024/01/21 05:33:40;;;;;;;0.30;0.30;;;-1.40;99.90;;;;;;5089285;28;20196;-78
2024/01/21 05:36:06;;;;;;;0.30;0.30;;;-1.40;99.90;;;;;;5089768;28;21017;-78
2024/01/21 05:38:32;;;;;;;0.30;0.30;;;-1.40;99.90;;;;;;5089225;28;20232;-84
2024/01/21 05:40:58;;;;;;;0.30;0.30;;;-1.50;99.90;;;;;;5088864;28;20188;-78
2024/01/21 05:43:23;;;;;;;0.30;0.30;;;-1.50;99.90;;;;;;5087410;28;20590;-83
2024/01/21 05:45:49;;;;;;;0.30;0.30;;;-1.50;99.90;;;;;;5089124;28;20189;-78
2024/01/21 05:48:15;;;;;;;0.30;0.30;;;-1.50;99.90;;;;;;5088435;28;20200;-77
2024/01/21 05:50:40;;;;;;;0.30;0.30;;;-1.50;99.90;;;;;;5087790;28;20633;-81
2024/01/21 05:53:07;;;;;;;0.30;0.30;;;-1.50;99.90;;;;;;5087545;28;20224;-78
2024/01/21 05:55:33;;;;;;;0.30;0.30;;;-1.50;99.90;;;;;;5087852;28;20710;-79
2024/01/21 05:57:59;;;;;;;0.30;0.30;;;-1.50;99.90;;;;;;5087553;28;20285;-78
2024/01/21 06:00:25;;;;;;;0.30;0.30;;;-1.50;99.90;;;;;;5089707;28;20714;-77
2024/01/21 06:02:53;;;;;;;0.30;0.30;;;-1.50;99.90;;;;;;5092726;28;20287;-83
2024/01/21 06:05:20;;;;;;;0.30;0.30;;;-1.60;99.90;;;;;;5093105;28;20243;-84
2024/01/21 06:07:46;;;;;;;0.30;0.30;;;-1.50;99.90;;;;;;5092944;28;20308;-84
2024/01/21 06:10:12;;;;;;;0.30;0.30;;;-1.50;99.90;;;;;;5091866;28;20299;-84
2024/01/21 06:12:37;;;;;;;0.30;0.30;;;-1.50;99.90;;;;;;5092828;28;20180;-78
2024/01/21 06:15:04;;;;;;;1.77;1.70;;;-1.50;99.90;;;;;;5090985;28;20870;-84
2024/01/21 06:17:30;;;;;;;0.30;0.30;;;-1.50;99.90;;;;;;5089976;28;20275;-84
2024/01/21 06:19:57;;;;;;;0.30;0.30;;;-1.60;99.90;;;;;;5090849;28;20263;-77
2024/01/21 06:22:22;;;;;;;0.30;0.30;;;-1.60;99.90;;;;;;5091032;28;20681;-84
2024/01/21 06:24:48;;;;;;;0.30;0.30;;;-1.60;99.90;;;;;;5092399;28;20226;-79
2024/01/21 06:27:14;;;;;;;0.30;0.30;;;-1.60;99.90;;;;;;5092351;28;20680;-83
2024/01/21 06:29:44;;;;;;;0.30;0.30;;;-1.60;99.90;;;;;;5090547;28;20213;-78
2024/01/21 06:32:10;;;;;;;0.30;0.30;;;-1.60;99.90;;;;;;5090972;28;20187;-78
2024/01/21 06:34:35;;;;;;;0.30;0.30;;;-1.60;99.90;;;;;;5090526;28;20665;-78
2024/01/21 06:37:01;;;;;;;0.30;0.30;;;-1.60;99.90;;;;;;5092198;28;20188;-82
2024/01/21 06:39:27;;;;;;;0.30;0.30;;;-1.60;99.90;;;;;;5090366;28;20193;-77
2024/01/21 06:41:53;;;;;;;0.30;0.30;;;-1.60;99.90;;;;;;5092197;28;20204;-79
2024/01/21 06:44:18;;;;;;;0.30;0.30;;;-1.50;99.90;;;;;;5091514;28;20959;-83
2024/01/21 06:46:44;;;;;;;0.30;0.30;;;-1.50;99.90;;;;;;5090842;28;20413;-79
2024/01/21 06:49:10;;;;;;;0.30;0.30;;;-1.50;99.90;;;;;;5087293;28;20710;-78
2024/01/21 06:51:53;;;;;;;0.30;0.30;;;-1.50;99.90;;;;;;5089765;28;20187;-79
2024/01/21 06:54:21;;;;;;;0.30;0.30;;;-1.40;99.90;;;;;;5090783;28;20423;-84
2024/01/21 06:56:46;;;;;;;0.30;0.30;;;-1.40;99.90;;;;;;5090665;28;20216;-84
2024/01/21 06:59:12;;;;;;;0.30;0.30;;;-1.30;99.90;;;;;;5089580;28;20669;-84
2024/01/21 07:01:38;;;;;;;0.30;0.30;;;-1.30;99.90;;;;;;5091068;28;20558;-78
2024/01/21 07:04:04;;;;;;;0.30;0.30;;;-1.20;99.90;;;;;;5089731;28;20718;-78
2024/01/21 07:06:29;;;;;;;0.30;0.30;;;-1.20;99.90;;;;;;5091840;28;20177;-81
2024/01/21 07:08:55;;;;;;;0.30;0.30;;;-1.10;99.90;;;;;;5088717;28;20242;-84
2024/01/21 07:11:21;;;;;;;0.30;0.30;;;-1.00;99.90;;;;;;5089886;28;20405;-79
2024/01/21 07:13:47;;;;;;;0.30;0.30;;;-0.90;99.90;;;;;;5087998;28;20451;-78
2024/01/21 07:16:13;;;;;;;0.30;0.30;;;-0.60;99.90;;;;;;5088940;28;20457;-84
2024/01/21 07:18:38;;;;;;;0.30;0.30;;;-0.20;99.90;;;;;;5088880;28;20196;-83
2024/01/21 07:21:04;;;;;;;0.30;0.30;;;0.20;99.90;;;;;;5089434;28;20267;-79
2024/01/21 07:23:29;;;;;;;0.30;0.30;;;0.50;99.90;;;;;;5090572;28;20196;-78
2024/01/21 07:25:56;;;;;;;0.30;0.30;;;0.80;99.90;;;;;;5089802;28;20177;-78
2024/01/21 07:28:22;;;;;;;0.30;0.30;;;0.80;99.90;;;;;;5090982;28;20192;-78
2024/01/21 07:30:47;;;;;;;0.30;0.30;;;0.80;99.90;;;;;;5091312;28;20185;-78
2024/01/21 07:33:13;;;;;;;0.30;0.30;;;0.80;99.90;;;;;;5090925;28;20279;-83
2024/01/21 07:35:39;;;;;;;0.30;0.30;;;0.70;99.90;;;;;;5091463;28;20240;-83
2024/01/21 07:38:05;;;;;;;0.30;0.30;;;0.70;99.90;;;;;;5091122;28;20351;-84
2024/01/21 07:40:31;;;;;;;0.30;0.30;;;0.60;99.90;;;;;;5091106;28;20181;-84
2024/01/21 07:42:57;;;;;;;0.30;0.30;;;0.60;99.90;;;;;;5089274;28;20246;-83
2024/01/21 07:45:23;;;;;;;0.30;0.30;;;0.70;99.90;;;;;;5089300;28;20574;-78
2024/01/21 07:47:50;;;;;;;0.30;0.30;;;1.00;99.90;;;;;;5090801;28;20196;-78
2024/01/21 07:50:15;;;;;;;0.30;0.30;;;1.30;99.90;;;;;;5089004;28;20276;-84
2024/01/21 07:52:43;;;;;;;0.30;0.30;;;1.70;99.90;;;;;;5089436;28;20764;-83
2024/01/21 07:55:09;;;;;;;0.30;0.30;;;2.00;99.90;;;;;;5088844;28;20216;-79
2024/01/21 07:57:34;;;;;;;0.30;0.30;;;2.30;99.90;;;;;;5090578;28;20546;-77
2024/01/21 08:00:00;;;;;;;0.30;0.30;;;2.60;99.90;;;;;;5090631;28;20541;-77
2024/01/21 08:02:27;;;;;;;0.30;0.30;;;3.00;99.90;;;;;;5089521;28;20185;-83
2024/01/21 08:04:53;;;;;;;0.30;0.30;;;3.60;99.90;;;;;;5089065;28;20760;-82
2024/01/21 08:07:19;;;;;;;0.30;0.30;;;4.00;99.90;;;;;;5089147;28;20637;-83
2024/01/21 08:09:45;;;;;;;7.50;7.10;;;4.50;99.90;;;;;;5088318;28;20235;-82
2024/01/21 08:12:10;;;;;;;1.93;1.87;;;5.00;99.90;;;;;;5089255;28;20207;-84
2024/01/21 08:14:36;;;;;;;3.47;3.33;;;5.70;99.90;;;;;;5089982;28;20419;-78
2024/01/21 08:17:02;;;;;;;0.40;0.30;;;6.40;99.90;;;;;;5088971;28;20234;-82
2024/01/21 08:19:28;;;;;;;0.40;0.30;;;7.20;99.90;;;;;;5088614;28;20287;-79
2024/01/21 08:21:54;;;;;;;0.30;0.30;;;7.90;99.90;;;;;;5089218;28;20207;-79
2024/01/21 08:24:20;;;;;;;0.30;0.30;;;8.60;99.90;;;;;;5087993;28;20639;-85
2024/01/21 08:26:46;;;;;;;0.57;0.57;;;9.30;99.90;;;;;;5090499;28;20409;-79
2024/01/21 08:29:11;;;;;;;0.40;0.30;;;10.00;99.30;;;;;;5089983;28;20394;-85
2024/01/21 08:31:44;;;;;;;0.40;0.30;;;10.60;97.20;;;;;;5090456;28;20187;-84
2024/01/21 08:34:10;;;;;;;0.38;0.30;;;11.10;95.50;;;;;;5088504;28;20724;-79
2024/01/21 08:36:36;;;;;;;1.88;1.85;;;11.40;94.10;;;;;;5088724;28;20835;-80
2024/01/21 08:39:05;;;;;;;5.38;5.15;;;11.70;93.70;;;;;;5087833;28;20674;-79
2024/01/21 08:41:34;;;;;;;0.40;0.30;;;12.10;93.30;;;;;;5088824;28;20605;-85
2024/01/21 08:44:01;;;;;;;7.00;2.43;;;12.60;92.60;;;;;;5087965;28;20294;-79
2024/01/21 08:46:26;;;;;;;0.40;0.30;;;13.10;90.90;;;;;;5088312;28;20686;-80
2024/01/21 08:48:52;;;;;;;0.40;0.30;;;13.50;90.20;;;;;;5087596;28;20510;-79
2024/01/21 08:51:18;;;;;;;0.57;0.57;;;13.80;87.90;;;;;;5089807;28;20176;-86
2024/01/21 08:53:43;;;;;;;3.40;2.77;;;14.00;86.40;;;;;;5089691;28;20203;-85
2024/01/21 08:56:09;;;;;;;0.40;0.30;;;14.20;86.00;;;;;;5089816;28;20205;-84
2024/01/21 08:58:35;;;;;;;0.40;0.30;;;14.50;84.30;;;;;;5088292;28;20249;-80
2024/01/21 09:01:01;;;;;;;0.40;0.30;;;14.70;82.80;;;;;;5088245;28;20938;-86
2024/01/21 09:03:27;;;;;;;0.40;0.30;;;15.00;81.80;;;;;;5088086;28;20275;-86
2024/01/21 09:05:52;;;;;;;0.50;0.40;;;15.30;82.00;;;;;;5088254;28;20207;-85
2024/01/21 09:08:18;;;;;;;4.27;4.03;;;15.70;79.70;;;;;;5089158;28;20422;-85
2024/01/21 09:10:45;;;;;;;0.40;0.30;;;15.90;78.70;;;;;;5089276;28;20701;-81
2024/01/21 09:13:10;;;;;;;0.40;0.30;;;16.10;78.50;;;;;;5088095;28;20477;-85
2024/01/21 09:15:36;;;;;;;0.53;0.50;;;16.30;77.80;;;;;;5088221;28;21007;-79
2024/01/21 09:18:02;;;;;;;0.97;0.97;;;16.60;77.90;;;;;;5088007;28;20436;-85
2024/01/21 09:20:28;;;;;;;3.50;3.30;;;16.80;76.70;;;;;;5088961;28;20310;-82
2024/01/21 09:22:54;;;;;;;2.50;2.23;;;17.00;76.20;;;;;;5089095;28;20496;-79
2024/01/21 09:25:19;;;;;;;0.40;0.30;;;17.10;76.80;;;;;;5088015;28;20188;-84
2024/01/21 09:27:45;;;;;;;0.70;0.70;;;17.20;74.50;;;;;;5089419;28;20196;-85
2024/01/21 09:30:11;;;;;;;0.30;0.20;;;17.40;74.60;;;;;;5087769;28;20181;-85
2024/01/21 09:32:37;;;;;;;0.40;0.30;;;17.40;74.40;;;;;;5089219;28;20260;-79
2024/01/21 09:35:03;;;;;;;0.50;0.50;;;17.50;74.40;;;;;;5089275;28;20701;-85
2024/01/21 09:37:29;;;;;;;0.40;0.30;;;17.60;74.10;;;;;;5092822;28;20174;-79
2024/01/21 09:39:54;;;;;;;0.40;0.30;;;17.80;73.40;;;;;;5093289;28;20422;-85
2024/01/21 09:42:20;;;;;;;0.30;0.20;;;17.80;73.20;;;;;;5093928;28;20173;-85
2024/01/21 09:44:46;;;;;;;0.37;0.30;;;17.80;73.20;;;;;;5093303;28;20264;-79
2024/01/21 09:47:13;;;;;;;0.40;0.30;;;17.60;73.40;;;;;;5091416;28;20529;-79
2024/01/21 09:49:40;;;;;;;4.33;3.93;;;17.50;73.10;;;;;;5092507;28;20197;-79
2024/01/21 09:52:05;;;;;;;0.40;0.30;;;17.30;73.00;;;;;;5091488;28;20530;-79
2024/01/21 09:54:31;;;;;;;0.33;0.30;;;17.10;73.20;;;;;;5091236;28;20861;-78
2024/01/21 09:56:57;;;;;;;0.40;0.30;;;17.10;73.50;;;;;;5092970;28;20669;-79
2024/01/21 09:59:22;;;;;;;1.33;0.70;;;17.10;73.20;;;;;;5092814;28;20224;-84
2024/01/21 10:01:48;;;;;;;1.03;1.03;;;17.10;74.00;;;;;;5091818;28;20230;-79
2024/01/21 10:04:14;;;;;;;0.30;0.30;;;17.10;74.20;;;;;;5092478;28;20194;-85
2024/01/21 10:06:40;;;;;;;0.47;0.47;;;16.90;73.10;;;;;;5091485;28;20196;-85
2024/01/21 10:09:16;;;;;;;1.10;0.60;;;16.70;74.20;;;;;;5090478;28;20484;-79
2024/01/21 10:11:42;;;;;;;0.30;0.30;;;16.50;73.60;;;;;;5092642;28;20400;-85
2024/01/21 10:14:08;;;;;;;0.43;0.40;;;16.30;74.30;;;;;;5092463;28;20438;-85
2024/01/21 10:16:34;;;;;;;0.70;0.70;;;16.10;73.20;;;;;;5092756;28;20472;-80
2024/01/21 10:19:00;;;;;;;0.40;0.40;;;15.60;74.30;;;;;;5090566;28;20710;-85
2024/01/21 10:21:26;;;;;;;0.40;0.30;;;15.10;73.80;;;;;;5092700;28;20410;-84
2024/01/21 10:23:51;;;;;;;0.40;0.30;;;14.50;75.10;;;;;;5089740;28;20938;-87
2024/01/21 10:26:17;;;;;;;0.40;0.27;;;14.00;76.30;;;;;;5091495;28;20626;-83
2024/01/21 10:28:43;;;;;;;1.43;1.43;;;13.60;77.60;;;;;;5092073;28;20192;-78
2024/01/21 10:31:09;;;;;;;0.53;0.50;;;13.20;78.50;;;;;;5092203;28;20184;-79
2024/01/21 10:33:34;;;;;;;0.30;0.20;;;12.90;78.50;;;;;;5092061;28;20423;-84
2024/01/21 10:36:01;;;;;;;1.60;1.50;;;12.50;80.20;;;;;;5090508;28;20478;-82
2024/01/21 10:38:39;;;;;;;0.30;0.20;;;12.10;81.40;;;;;;5092278;28;20238;-78
2024/01/21 10:41:06;;;;;;;3.93;3.60;;;11.80;81.70;;;;;;5092003;28;20405;-78
2024/01/21 10:43:34;;;;;;;0.77;0.77;;;11.60;82.00;;;;;;5090612;28;20436;-79
2024/01/21 10:46:02;;;;;;;0.30;0.20;;;11.50;82.40;;;;;;5091748;28;20456;-78
2024/01/21 10:48:28;;;;;;;0.30;0.20;;;11.30;83.60;;;;;;5089998;28;20977;-83
2024/01/21 10:50:54;;;;;;;0.30;0.20;;;11.10;84.30;;;;;;5091012;28;20432;-79
2024/01/21 10:53:23;;;;;;;0.40;0.40;;;11.00;82.60;;;;;;5091892;28;20193;-78
2024/01/21 10:55:51;;;;;;;1.80;1.50;;;10.80;84.00;;;;;;5091820;28;20697;-84
2024/01/21 10:58:17;;;;;;;0.40;0.20;;;10.70;84.30;;;;;;5092320;28;20204;-84
2024/01/21 11:00:43;;;;;;;0.30;0.23;;;10.50;85.40;;;;;;5090385;28;20217;-78
2024/01/21 11:03:25;;;;;;;0.40;0.20;;;10.40;85.90;;;;;;5090372;28;20471;-78
2024/01/21 11:05:54;;;;;;;0.40;0.40;;;10.20;86.70;;;;;;5090093;28;20181;-78
2024/01/21 11:08:23;;;;;;;0.30;0.20;;;10.10;85.80;;;;;;5090127;28;20568;-78
2024/01/21 11:10:58;;;;;;;0.30;0.22;;;9.90;86.90;;;;;;5091457;28;20708;-84
2024/01/21 11:13:43;;;;;;;0.32;0.20;;;9.80;86.60;;;;;;5090160;28;20675;-84
2024/01/21 11:16:28;;;;;;;0.30;0.20;;;9.70;87.00;;;;;;5091524;28;20684;-85
2024/01/21 11:19:08;;;;;;;0.30;0.20;;;9.40;86.40;;;;;;5091000;28;20192;-78
2024/01/21 11:21:43;;;;;;;0.30;0.20;;;9.30;88.70;;;;;;5091597;28;20391;-85
2024/01/21 11:24:13;;;;;;;0.30;0.20;;;9.10;88.90;;;;;;5090205;28;20208;-84
2024/01/21 11:26:46;;;;;;;0.73;0.73;;;9.00;88.50;;;;;;5091250;28;20302;-79
2024/01/21 11:29:24;;;;;;;0.30;0.20;;;8.90;90.00;;;;;;5089500;28;20218;-84
2024/01/21 11:32:00;;;;;;;0.30;0.20;;;8.80;90.40;;;;;;5091327;28;20471;-78
2024/01/21 11:34:36;;;;;;;0.30;0.20;;;8.60;89.60;;;;;;5089608;28;20341;-78
2024/01/21 11:37:02;;;;;;;1.80;1.70;;;8.50;90.50;;;;;;5091294;28;20187;-78
2024/01/21 11:39:28;;;;;;;0.30;0.20;;;8.50;90.30;;;;;;5089494;28;20667;-80
2024/01/21 11:41:54;;;;;;;0.30;0.30;;;8.40;90.30;;;;;;5091106;28;20412;-84
2024/01/21 11:44:22;;;;;;;0.30;0.20;;;8.40;90.70;;;;;;5090782;28;20223;-78
2024/01/21 11:46:49;;;;;;;0.30;0.22;;;8.40;91.10;;;;;;5089481;28;20687;-84
2024/01/21 11:49:15;;;;;;;0.30;0.20;;;8.40;90.70;;;;;;5090537;28;20196;-78
2024/01/21 11:51:41;;;;;;;0.30;0.20;;;8.50;90.60;;;;;;5089051;28;20181;-78
2024/01/21 11:54:07;;;;;;;0.85;0.85;;;8.50;90.60;;;;;;5088566;28;20192;-78
2024/01/21 11:56:35;;;;;;;0.30;0.20;;;8.50;90.60;;;;;;5087753;28;20311;-83
2024/01/21 11:59:01;;;;;;;0.30;0.30;;;8.50;90.50;;;;;;5087637;28;20258;-78
2024/01/21 12:01:27;;;;;;;0.30;0.20;;;8.50;90.70;;;;;;5089002;28;20633;-84
2024/01/21 12:03:56;;;;;;;0.30;0.20;;;8.40;91.30;;;;;;5088383;28;20850;-84
2024/01/21 12:06:24;;;;;;;0.30;0.20;;;8.40;91.40;;;;;;5087620;28;20180;-83
2024/01/21 12:08:50;;;;;;;0.30;0.20;;;8.40;91.10;;;;;;5088008;28;20196;-78
2024/01/21 12:11:16;;;;;;;2.10;2.00;;;8.40;91.30;;;;;;5088748;28;20555;-78
2024/01/21 12:13:45;;;;;;;0.30;0.20;;;8.50;91.80;;;;;;5088836;28;20441;-78
2024/01/21 12:16:11;;;;;;;0.30;0.20;;;8.50;91.80;;;;;;5090262;28;20276;-78
2024/01/21 12:18:41;;;;;;;0.30;0.20;;;8.50;91.30;;;;;;5090457;28;20696;-78
2024/01/21 12:21:11;;;;;;;0.30;0.20;;;8.60;92.10;;;;;;5090212;28;20185;-85
2024/01/21 12:23:40;;;;;;;0.30;0.20;;;8.60;91.90;;;;;;5090059;28;20189;-84
2024/01/21 12:26:05;;;;;;;0.30;0.20;;;8.60;91.30;;;;;;5088151;28;20184;-78
2024/01/21 12:28:31;;;;;;;0.30;0.20;;;8.60;92.10;;;;;;5089712;28;20661;-84
2024/01/21 12:30:58;;;;;;;0.30;0.20;;;8.70;92.00;;;;;;5090449;28;20195;-78
2024/01/21 12:33:25;;;;;;;0.30;0.20;;;8.60;92.00;;;;;;5080760;28;20558;-78
2024/01/21 12:35:51;;;;;;;0.30;0.20;;;8.60;91.90;;;;;;5078207;28;20204;-78
2024/01/21 12:38:17;;;;;;;0.80;0.80;;;8.60;91.40;;;;;;5078678;28;20228;-84
2024/01/21 12:40:44;;;;;;;3.90;3.80;;;8.50;90.90;;;;;;5068708;28;20663;-78
2024/01/21 12:43:10;;;;;;;0.85;0.85;;;8.40;91.10;;;;;;5068168;28;20223;-78
2024/01/21 12:45:36;;;;;;;0.30;0.20;;;8.40;92.10;;;;;;5070029;28;20173;-84